Time,TemperatureF,DewpointF,PressureIn,WindDirection,WindDirectionDegrees,WindSpeedMPH,WindSpeedGustMPH,Humidity,HourlyPrecipIn,Conditions,Clouds,dailyrainin,SoftwareType,DateUTC
2013-10-27 00:00:00,33.0,19.0,30.23,ENE,70,11.0,19.0,57,0.00,,,0.00,,2013-10-27 08:00:00,
2013-10-27 00:42:00,33.0,19.0,30.23,ENE,70,11.0,19.0,57,0.00,,,0.00,,2013-10-27 08:42:00,
2013-10-27 00:52:00,33.0,19.0,30.23,ENE,70,11.0,19.0,57,0.00,,,0.00,,2013-10-27 08:52:00,
2013-10-27 01:00:00,34.0,18.0,30.18,ENE,69,12.0,21.0,52,0.00,,,0.00,,2013-10-27 09:00:00,
2013-10-27 01:43:00,34.0,18.0,30.18,ENE,69,12.0,21.0,52,0.00,,,0.00,,2013-10-27 09:43:00,
2013-10-27 01:54:00,34.0,18.0,30.18,ENE,69,12.0,21.0,52,0.00,,,0.00,,2013-10-27 09:54:00,
2013-10-27 02:00:00,35.0,17.0,30.14,ENE,74,13.0,24.0,47,0.00,,,0.00,,2013-10-27 10:00:00,
2013-10-27 02:42:00,35.0,17.0,-100.00,ENE,74,13.0,24.0,47,0.00,,,0.00,,2013-10-27 10:42:00,
2013-10-27 02:53:00,35.0,17.0,30.14,ENE,74,13.0,24.0,47,0.00,,,0.00,,2013-10-27 10:53:00,
2013-10-27 03:00:00,35.0,13.0,30.09,ENE,71,14.0,25.0,41,0.00,,,0.00,,2013-10-27 11:00:00,
2013-10-27 03:42:00,35.0,13.0,-100.00,ENE,71,14.0,25.0,41,0.00,,,0.00,,2013-10-27 11:42:00,
2013-10-27 03:52:00,35.0,13.0,30.09,ENE,71,14.0,25.0,41,0.00,,,0.00,,2013-10-27 11:52:00,
2013-10-27 04:00:00,36.0,12.0,30.05,ENE,76,12.0,24.0,37,0.00,,,0.00,,2013-10-27 12:00:00,
2013-10-27 04:42:00,36.0,12.0,-100.00,ENE,76,12.0,24.0,37,0.00,,,0.00,,2013-10-27 12:42:00,
2013-10-27 04:52:00,36.0,12.0,30.05,ENE,76,12.0,24.0,37,0.00,,,0.00,,2013-10-27 12:52:00,
2013-10-27 05:00:00,37.0,11.0,30.03,ENE,70,13.0,22.0,34,0.00,,,0.00,,2013-10-27 13:00:00,
2013-10-27 05:42:00,37.0,11.0,30.03,ENE,70,13.0,22.0,34,0.00,,,0.00,,2013-10-27 13:42:00,
2013-10-27 05:52:00,37.0,11.0,30.03,ENE,70,13.0,22.0,34,0.00,,,0.00,,2013-10-27 13:52:00,
2013-10-27 06:00:00,37.0,11.0,30.02,ENE,76,13.0,22.0,34,0.00,,,0.00,,2013-10-27 14:00:00,
2013-10-27 06:42:00,37.0,11.0,30.02,ENE,76,13.0,22.0,34,0.00,,,0.00,,2013-10-27 14:42:00,
2013-10-27 06:52:00,37.0,11.0,30.02,ENE,76,13.0,22.0,34,0.00,,,0.00,,2013-10-27 14:52:00,
2013-10-27 07:00:00,37.0,12.0,29.99,ENE,73,10.0,19.0,35,0.00,,,0.00,,2013-10-27 15:00:00,
2013-10-27 07:45:00,37.0,12.0,29.99,ENE,73,10.0,19.0,35,0.00,,,0.00,,2013-10-27 15:45:00,
2013-10-27 07:54:00,37.0,12.0,29.99,ENE,73,10.0,19.0,35,0.00,,,0.00,,2013-10-27 15:54:00,
2013-10-27 08:00:00,37.0,13.0,29.99,ENE,76,7.0,16.0,37,0.00,,,-99.99,,2013-10-27 16:00:00,
2013-10-27 08:43:00,37.0,13.0,29.99,ENE,76,7.0,16.0,37,0.00,,,-99.99,,2013-10-27 16:43:00,
2013-10-27 08:53:00,37.0,13.0,29.99,ENE,76,7.0,16.0,37,0.00,,,-99.99,,2013-10-27 16:53:00,
2013-10-27 09:00:00,37.0,12.0,29.97,ENE,68,8.0,15.0,36,0.00,,,0.00,,2013-10-27 17:00:00,
2013-10-27 09:43:00,37.0,12.0,29.97,ENE,68,8.0,15.0,36,0.00,,,0.00,,2013-10-27 17:43:00,
2013-10-27 09:53:00,37.0,12.0,29.97,ENE,68,8.0,15.0,36,0.00,,,0.00,,2013-10-27 17:53:00,
2013-10-27 10:00:00,38.0,13.0,29.95,ENE,70,8.0,15.0,36,0.00,,,0.00,,2013-10-27 18:00:00,
2013-10-27 10:43:00,38.0,13.0,29.95,ENE,70,8.0,15.0,36,0.00,,,0.00,,2013-10-27 18:43:00,
2013-10-27 10:52:00,38.0,13.0,29.95,ENE,70,8.0,15.0,36,0.00,,,0.00,,2013-10-27 18:52:00,
2013-10-27 11:00:00,39.0,15.0,29.94,ENE,63,7.0,14.0,37,0.00,,,0.00,,2013-10-27 19:00:00,
2013-10-27 11:42:00,39.0,15.0,29.94,ENE,63,7.0,14.0,37,0.00,,,0.00,,2013-10-27 19:42:00,
2013-10-27 11:52:00,39.0,15.0,29.94,ENE,63,7.0,14.0,37,0.00,,,0.00,,2013-10-27 19:52:00,
2013-10-27 12:00:00,39.0,16.0,29.92,ENE,62,7.0,13.0,39,0.00,,,0.00,,2013-10-27 20:00:00,
2013-10-27 12:43:00,39.0,16.0,29.92,ENE,62,7.0,13.0,39,0.00,,,0.00,,2013-10-27 20:43:00,
2013-10-27 12:52:00,39.0,16.0,29.92,ENE,62,7.0,13.0,39,0.00,,,0.00,,2013-10-27 20:52:00,
2013-10-27 13:00:00,40.0,18.0,29.93,ENE,75,4.0,13.0,41,0.00,,,0.00,,2013-10-27 21:00:00,
2013-10-27 13:43:00,40.0,18.0,29.93,ENE,75,4.0,13.0,41,0.00,,,0.00,,2013-10-27 21:43:00,
2013-10-27 13:54:00,40.0,18.0,29.93,ENE,75,4.0,13.0,41,0.00,,,0.00,,2013-10-27 21:54:00,
2013-10-27 14:00:00,39.0,19.0,29.90,East,81,5.0,11.0,45,0.00,,,0.00,,2013-10-27 22:00:00,
2013-10-27 14:43:00,39.0,19.0,29.90,East,81,5.0,11.0,45,0.00,,,0.00,,2013-10-27 22:43:00,
2013-10-27 14:54:00,39.0,19.0,29.90,East,81,5.0,11.0,45,0.00,,,0.00,,2013-10-27 22:54:00,
2013-10-27 15:00:00,39.0,20.0,29.89,ENE,69,4.0,8.0,46,0.00,,,0.00,,2013-10-27 23:00:00,
2013-10-27 15:42:00,39.0,20.0,29.89,ENE,69,4.0,8.0,46,0.00,,,0.00,,2013-10-27 23:42:00,
2013-10-27 15:52:00,39.0,20.0,29.89,ENE,69,4.0,8.0,46,0.00,,,0.00,,2013-10-27 23:52:00,
2013-10-27 16:00:00,39.0,20.0,29.88,ENE,60,4.0,8.0,46,0.00,,,0.00,,2013-10-28 00:00:00,
2013-10-27 16:43:00,39.0,20.0,29.88,ENE,60,4.0,8.0,46,0.00,,,0.00,,2013-10-28 00:43:00,
2013-10-27 16:52:00,39.0,20.0,29.88,ENE,60,4.0,8.0,46,0.00,,,0.00,,2013-10-28 00:52:00,
2013-10-27 17:00:00,38.0,20.0,-100.00,ENE,67,4.0,7.0,49,0.00,,,0.00,,2013-10-28 01:00:00,
2013-10-27 17:42:00,38.0,20.0,-100.00,ENE,67,4.0,7.0,49,0.00,,,0.00,,2013-10-28 01:42:00,
2013-10-27 17:52:00,38.0,20.0,-100.00,ENE,67,4.0,7.0,49,0.00,,,0.00,,2013-10-28 01:52:00,
2013-10-27 18:00:00,38.0,22.0,29.82,ENE,64,5.0,8.0,53,0.00,,,-99.99,,2013-10-28 02:00:00,
2013-10-27 18:42:00,38.0,22.0,29.82,ENE,64,5.0,8.0,53,0.00,,,-99.99,,2013-10-28 02:42:00,
2013-10-27 18:53:00,38.0,22.0,29.82,ENE,64,5.0,8.0,53,0.00,,,-99.99,,2013-10-28 02:53:00,
2013-10-27 19:00:00,38.0,24.0,29.78,ENE,67,5.0,11.0,56,0.00,,,0.00,,2013-10-28 03:00:00,
2013-10-27 19:44:00,38.0,24.0,29.78,ENE,67,5.0,11.0,56,0.00,,,0.00,,2013-10-28 03:44:00,
2013-10-27 19:54:00,38.0,24.0,29.78,ENE,67,5.0,11.0,56,0.00,,,0.00,,2013-10-28 03:54:00,
2013-10-27 20:00:00,36.0,28.0,-100.00,ENE,76,7.0,12.0,72,0.00,,,0.00,,2013-10-28 04:00:00,
2013-10-27 20:43:00,36.0,28.0,29.74,ENE,76,7.0,12.0,72,0.00,,,0.00,,2013-10-28 04:43:00,
2013-10-27 20:53:00,36.0,28.0,-100.00,ENE,76,7.0,12.0,72,0.00,,,0.00,,2013-10-28 04:53:00,
2013-10-27 21:00:00,35.0,31.0,-100.00,ENE,76,7.0,20.0,85,0.01,,,0.01,,2013-10-28 05:00:00,
2013-10-27 21:43:00,35.0,31.0,-100.00,ENE,76,7.0,20.0,85,0.01,,,0.01,,2013-10-28 05:43:00,
2013-10-27 21:53:00,35.0,31.0,-100.00,ENE,76,7.0,20.0,85,0.01,,,0.01,,2013-10-28 05:53:00,
2013-10-27 22:00:00,34.0,32.0,-100.00,ENE,72,9.0,19.0,92,0.02,,,0.03,,2013-10-28 06:00:00,
2013-10-27 22:43:00,34.0,32.0,-100.00,ENE,72,9.0,19.0,92,0.02,,,0.03,,2013-10-28 06:43:00,
2013-10-27 22:52:00,34.0,32.0,-100.00,ENE,72,9.0,19.0,92,0.02,,,0.03,,2013-10-28 06:52:00,
2013-10-27 23:00:00,34.0,32.0,-100.00,ENE,72,10.0,18.0,94,0.01,,,0.04,,2013-10-28 07:00:00,
2013-10-27 23:42:00,34.0,32.0,-100.00,ENE,72,10.0,18.0,94,0.01,,,0.04,,2013-10-28 07:42:00,
2013-10-27 23:52:00,34.0,32.0,-100.00,ENE,72,10.0,18.0,94,0.01,,,0.04,,2013-10-28 07:52:00,